Time;durP1;ratioP1;P1;durP2;ratioP2;P2;SDS_P1;SDS_P2;PMS_P1;PMS_P2;Temp;Humidity;BMP_temperature;BMP_pressure;BME280_temperature;BME280_humidity;BME280_pressure;Samples;Min_cycle;Max_cycle;Signal;HPM_P1;HPM_P2
2022/06/06 00:01:53;;;;;;;44.47;29.50;;;17.80;99.90;;;;;;5075239;28;20974;-66
2022/06/06 00:04:21;;;;;;;40.90;31.03;;;17.90;99.90;;;;;;5074991;28;20547;-66
2022/06/06 00:06:49;;;;;;;37.90;29.90;;;17.80;99.90;;;;;;5074627;28;20488;-66
2022/06/06 00:09:16;;;;;;;40.80;30.50;;;17.90;99.90;;;;;;5074831;28;20453;-66
2022/06/06 00:11:44;;;;;;;35.30;28.10;;;17.90;99.90;;;;;;5074753;28;20467;-66
2022/06/06 00:14:12;;;;;;;40.67;28.10;;;17.80;99.90;;;;;;5074740;28;20447;-66
2022/06/06 00:16:41;;;;;;;36.63;27.37;;;17.80;99.90;;;;;;5074729;28;20448;-67
2022/06/06 00:19:08;;;;;;;32.47;26.67;;;17.80;99.90;;;;;;5074649;28;20448;-67
2022/06/06 00:21:35;;;;;;;35.50;25.70;;;17.80;99.90;;;;;;5074401;28;20469;-67
2022/06/06 00:24:03;;;;;;;35.63;25.70;;;17.90;99.90;;;;;;5074553;28;20456;-67
2022/06/06 00:26:32;;;;;;;34.37;26.10;;;17.80;99.90;;;;;;5074466;28;20448;-66
2022/06/06 00:28:59;;;;;;;31.00;25.13;;;17.80;99.90;;;;;;5074492;28;20443;-66
2022/06/06 00:36:58;;;;;;;36.00;24.97;;;17.90;99.90;;;;;;5074446;28;20393;-66
2022/06/06 00:39:25;;;;;;;34.70;25.47;;;17.90;99.90;;;;;;5075024;28;20437;-66
2022/06/06 00:41:56;;;;;;;30.47;23.67;;;17.90;99.90;;;;;;5074218;28;20464;-66
2022/06/06 00:44:25;;;;;;;33.80;24.83;;;17.80;99.90;;;;;;5073867;28;20793;-66
2022/06/06 00:46:55;;;;;;;32.80;23.27;;;17.80;99.90;;;;;;5073986;28;20488;-67
2022/06/06 00:49:27;;;;;;;34.90;26.47;;;17.90;99.90;;;;;;5073898;28;20448;-67
2022/06/06 00:51:55;;;;;;;37.53;27.37;;;17.90;99.90;;;;;;5074017;28;20465;-66
2022/06/06 00:54:22;;;;;;;33.17;25.77;;;17.90;99.90;;;;;;5073996;28;20449;-66
2022/06/06 00:56:53;;;;;;;37.80;26.57;;;17.90;99.90;;;;;;5073655;28;20925;-67
2022/06/06 00:59:22;;;;;;;38.83;27.80;;;17.90;99.90;;;;;;5073525;28;20453;-66
2022/06/06 01:01:50;;;;;;;35.20;26.17;;;17.90;99.90;;;;;;5073723;28;20985;-65
2022/06/06 01:04:19;;;;;;;37.83;28.50;;;17.90;99.90;;;;;;5073834;28;20455;-67
2022/06/06 01:06:47;;;;;;;34.93;25.33;;;18.00;99.90;;;;;;5073768;28;20448;-65
2022/06/06 01:09:16;;;;;;;31.17;23.70;;;18.00;99.90;;;;;;5073929;28;20441;-65
2022/06/06 01:11:47;;;;;;;30.73;22.67;;;18.00;99.90;;;;;;5073735;28;20475;-65
2022/06/06 01:14:18;;;;;;;36.87;23.73;;;17.90;99.90;;;;;;5073989;28;20437;-65
2022/06/06 01:16:51;;;;;;;31.13;21.97;;;18.00;99.90;;;;;;5073844;28;20523;-65
2022/06/06 01:19:48;;;;;;;29.90;21.50;;;17.90;99.90;;;;;;5073791;28;20432;-65
2022/06/06 01:22:50;;;;;;;29.07;20.83;;;18.00;99.90;;;;;;5074059;28;20433;-65
2022/06/06 01:25:55;;;;;;;25.57;19.60;;;18.00;99.90;;;;;;5074041;28;20451;-65
2022/06/06 01:28:44;;;;;;;24.37;19.67;;;17.90;99.90;;;;;;5067483;28;20534;-65
2022/06/06 01:31:14;;;;;;;28.23;19.10;;;17.90;99.90;;;;;;5074578;28;20472;-66
2022/06/06 01:33:51;;;;;;;23.33;17.93;;;17.90;99.90;;;;;;5076651;28;20469;-65
2022/06/06 01:36:18;;;;;;;23.40;18.20;;;17.80;99.90;;;;;;5076158;28;20452;-65
2022/06/06 01:38:45;;;;;;;21.73;17.50;;;17.80;99.90;;;;;;5075236;28;20440;-65
2022/06/06 01:41:18;;;;;;;23.23;16.87;;;17.80;99.90;;;;;;5075168;28;20475;-65
2022/06/06 01:43:51;;;;;;;22.73;15.87;;;17.90;99.90;;;;;;5076408;28;20433;-66
2022/06/06 01:46:22;;;;;;;19.57;16.30;;;17.80;99.90;;;;;;5074469;28;20433;-66
2022/06/06 01:48:51;;;;;;;19.40;15.30;;;17.90;99.90;;;;;;5073346;28;20468;-66
2022/06/06 01:51:23;;;;;;;21.23;16.37;;;17.90;99.90;;;;;;5073337;28;20923;-66
2022/06/06 01:53:49;;;;;;;20.07;16.50;;;17.90;99.90;;;;;;5073427;28;20859;-66
2022/06/06 01:56:20;;;;;;;20.50;14.30;;;17.90;99.90;;;;;;5073201;28;20463;-66
2022/06/06 01:58:48;;;;;;;23.00;15.70;;;17.90;99.90;;;;;;5073094;28;20961;-65
2022/06/06 02:01:15;;;;;;;20.10;15.03;;;17.90;99.90;;;;;;5074109;28;20492;-66
2022/06/06 02:03:42;;;;;;;18.93;14.20;;;17.90;99.90;;;;;;5077302;28;20519;-66
2022/06/06 02:06:09;;;;;;;17.43;13.97;;;17.90;99.90;;;;;;5076980;28;20941;-66
2022/06/06 02:08:36;;;;;;;18.10;14.13;;;17.80;99.90;;;;;;5077102;28;20476;-66
2022/06/06 02:11:04;;;;;;;20.00;14.63;;;17.90;99.90;;;;;;5076827;28;20999;-66
2022/06/06 02:13:30;;;;;;;17.97;14.50;;;17.90;99.90;;;;;;5077138;28;20543;-66
2022/06/06 02:16:00;;;;;;;17.70;14.30;;;17.90;99.90;;;;;;5076710;28;20448;-66
2022/06/06 02:18:27;;;;;;;14.43;11.73;;;17.80;99.90;;;;;;5076984;28;20449;-66
2022/06/06 02:20:54;;;;;;;12.87;11.40;;;17.80;99.90;;;;;;5077169;28;20465;-66
2022/06/06 02:23:21;;;;;;;18.77;11.60;;;17.80;99.90;;;;;;5076634;28;20542;-66
2022/06/06 02:25:48;;;;;;;13.97;10.20;;;17.80;99.90;;;;;;5076490;28;20957;-66
2022/06/06 02:28:16;;;;;;;13.57;10.83;;;17.70;99.90;;;;;;5076640;28;20465;-66
2022/06/06 02:30:43;;;;;;;13.30;10.50;;;17.70;99.90;;;;;;5076713;28;20469;-66
2022/06/06 02:33:11;;;;;;;13.60;10.43;;;17.70;99.90;;;;;;5076708;28;20953;-66
2022/06/06 02:35:40;;;;;;;17.10;10.67;;;17.70;99.90;;;;;;5076685;28;20467;-65
2022/06/06 02:38:09;;;;;;;11.63;9.80;;;17.70;99.90;;;;;;5077118;28;20440;-65
2022/06/06 02:40:36;;;;;;;11.67;9.30;;;17.70;99.90;;;;;;5076733;28;20456;-66
2022/06/06 02:43:03;;;;;;;13.03;10.10;;;17.60;99.90;;;;;;5077016;28;20448;-66
2022/06/06 02:45:30;;;;;;;12.73;10.60;;;17.60;99.90;;;;;;5076252;28;20445;-66
2022/06/06 02:47:58;;;;;;;12.33;9.70;;;17.60;99.90;;;;;;5076305;28;20488;-66
2022/06/06 02:50:29;;;;;;;12.03;9.17;;;17.70;99.90;;;;;;5076391;28;20491;-66
2022/06/06 02:52:56;;;;;;;10.73;9.63;;;17.60;99.90;;;;;;5076413;28;20482;-65
2022/06/06 02:55:23;;;;;;;11.10;9.33;;;17.60;99.90;;;;;;5076262;28;20490;-65
2022/06/06 02:57:51;;;;;;;12.90;9.10;;;17.50;99.90;;;;;;5076097;28;20452;-65
2022/06/06 03:00:22;;;;;;;27.63;10.20;;;17.50;99.90;;;;;;5076218;28;20467;-65
2022/06/06 03:02:49;;;;;;;9.90;8.90;;;17.50;99.90;;;;;;5076466;28;20425;-65
2022/06/06 03:05:16;;;;;;;13.77;10.23;;;17.50;99.90;;;;;;5076136;28;20452;-65
2022/06/06 03:07:56;;;;;;;11.30;9.50;;;17.50;99.90;;;;;;5076110;28;20484;-65
2022/06/06 03:10:31;;;;;;;10.87;9.53;;;17.60;99.80;;;;;;5076052;28;20460;-66
2022/06/06 03:13:08;;;;;;;10.17;9.17;;;17.60;99.90;;;;;;5075057;28;20428;-66
2022/06/06 03:22:07;;;;;;;12.10;9.93;;;17.50;99.50;;;;;;5073290;28;20540;-65
2022/06/06 03:24:46;;;;;;;15.40;9.70;;;17.40;99.60;;;;;;5075771;28;20432;-66
2022/06/06 03:27:23;;;;;;;15.20;9.63;;;17.40;99.70;;;;;;5075697;28;20432;-66
2022/06/06 03:29:59;;;;;;;11.97;9.93;;;17.40;99.70;;;;;;5075353;28;20429;-66
2022/06/06 03:32:33;;;;;;;11.77;9.00;;;17.40;99.70;;;;;;5075389;28;20917;-65
2022/06/06 03:35:09;;;;;;;14.93;9.87;;;17.30;99.50;;;;;;5075641;28;20468;-66
2022/06/06 03:37:41;;;;;;;12.07;10.00;;;17.30;99.50;;;;;;5075606;28;20793;-65
2022/06/06 03:40:18;;;;;;;12.87;11.30;;;17.30;99.70;;;;;;5075491;28;20465;-65
2022/06/06 03:42:53;;;;;;;14.13;10.77;;;17.30;99.60;;;;;;5075088;28;20425;-65
2022/06/06 03:45:34;;;;;;;13.17;10.70;;;17.20;99.60;;;;;;5075409;28;20454;-65
2022/06/06 03:48:13;;;;;;;13.40;10.80;;;17.20;99.60;;;;;;5074940;28;20992;-65
2022/06/06 03:50:48;;;;;;;12.37;11.10;;;17.20;99.70;;;;;;5075540;28;20549;-65
2022/06/06 03:53:22;;;;;;;12.97;10.70;;;17.20;99.90;;;;;;5075039;28;20432;-65
2022/06/06 03:56:09;;;;;;;16.40;11.63;;;17.20;99.80;;;;;;5075182;28;20428;-65
2022/06/06 03:58:38;;;;;;;16.40;11.43;;;17.20;99.90;;;;;;5074909;28;20484;-65
2022/06/06 04:01:08;;;;;;;13.00;10.70;;;17.20;99.90;;;;;;5075046;28;20825;-65
2022/06/06 04:03:35;;;;;;;16.73;12.03;;;17.20;99.90;;;;;;5075080;28;20425;-66
2022/06/06 04:06:04;;;;;;;14.90;10.67;;;17.20;99.90;;;;;;5075009;28;20448;-65
2022/06/06 04:08:32;;;;;;;11.87;10.60;;;17.20;99.80;;;;;;5075406;28;20476;-65
2022/06/06 04:11:12;;;;;;;13.83;9.90;;;17.20;99.60;;;;;;5075584;28;20473;-65
2022/06/06 04:13:45;;;;;;;15.20;11.60;;;17.10;99.60;;;;;;5077166;28;20920;-65
2022/06/06 04:16:23;;;;;;;16.03;11.67;;;17.10;99.90;;;;;;5075555;28;20482;-66
2022/06/06 04:19:05;;;;;;;14.07;11.03;;;17.10;99.90;;;;;;5074586;28;20421;-65
2022/06/06 04:21:42;;;;;;;13.20;10.03;;;17.10;99.90;;;;;;5074649;28;20468;-65
2022/06/06 04:24:31;;;;;;;18.13;12.00;;;17.10;99.70;;;;;;5074288;28;20428;-66
2022/06/06 04:27:12;;;;;;;16.07;10.93;;;17.10;99.70;;;;;;5074425;28;20440;-65
2022/06/06 04:29:47;;;;;;;15.77;11.10;;;17.10;99.40;;;;;;5074129;28;20965;-66
2022/06/06 04:32:23;;;;;;;12.43;10.30;;;17.20;99.10;;;;;;5074447;28;20431;-65
2022/06/06 04:35:01;;;;;;;15.63;12.10;;;17.20;99.30;;;;;;5074512;28;20432;-65
2022/06/06 04:37:35;;;;;;;17.77;11.70;;;17.20;99.10;;;;;;5074520;28;20443;-65
2022/06/06 04:40:12;;;;;;;14.30;11.70;;;17.20;99.10;;;;;;5074999;28;20476;-65
2022/06/06 04:42:45;;;;;;;13.93;11.10;;;17.20;98.90;;;;;;5074270;28;20539;-65
2022/06/06 04:45:19;;;;;;;12.40;9.40;;;17.10;98.30;;;;;;5074250;28;20786;-65
2022/06/06 04:47:49;;;;;;;12.50;9.50;;;17.10;98.00;;;;;;5074102;28;20425;-66
2022/06/06 04:50:20;;;;;;;11.93;9.30;;;17.10;97.80;;;;;;5073780;28;20977;-65
2022/06/06 04:52:54;;;;;;;14.43;10.30;;;17.10;97.80;;;;;;5074070;28;20429;-65
2022/06/06 04:55:22;;;;;;;11.67;9.80;;;17.00;97.80;;;;;;5073986;28;20428;-65
2022/06/06 04:57:54;;;;;;;13.30;10.17;;;17.00;97.90;;;;;;5074296;28;20467;-65
2022/06/06 05:00:21;;;;;;;14.47;9.70;;;17.00;98.10;;;;;;5074085;28;20469;-65
2022/06/06 05:02:48;;;;;;;12.87;10.30;;;16.90;98.30;;;;;;5073779;28;21019;-65
2022/06/06 05:05:15;;;;;;;13.27;10.20;;;17.00;98.50;;;;;;5073766;28;20482;-65
2022/06/06 05:08:08;;;;;;;14.03;10.67;;;17.00;98.60;;;;;;5073599;28;20955;-66
2022/06/06 05:10:49;;;;;;;14.00;11.23;;;17.00;98.40;;;;;;5073538;28;20981;-66
2022/06/06 05:13:46;;;;;;;10.73;9.63;;;17.00;98.40;;;;;;5074069;28;20775;-66
2022/06/06 05:16:39;;;;;;;12.30;9.13;;;17.00;97.90;;;;;;5074307;28;20425;-66
2022/06/06 05:19:21;;;;;;;12.93;9.40;;;17.00;97.70;;;;;;5074597;28;20809;-66
2022/06/06 05:22:10;;;;;;;10.40;8.50;;;17.00;97.40;;;;;;5074642;28;20488;-66
2022/06/06 05:24:53;;;;;;;10.77;7.50;;;17.00;97.30;;;;;;5074572;28;20428;-66
2022/06/06 05:27:47;;;;;;;9.03;8.20;;;17.00;97.20;;;;;;5074916;28;20425;-66
2022/06/06 05:30:19;;;;;;;9.93;7.97;;;17.00;97.10;;;;;;5073677;28;20460;-66
2022/06/06 05:33:02;;;;;;;8.67;7.70;;;17.00;97.10;;;;;;5074515;28;20431;-66
2022/06/06 05:35:52;;;;;;;11.40;7.20;;;17.00;97.00;;;;;;5073498;28;20421;-66
2022/06/06 05:38:33;;;;;;;8.30;6.27;;;17.00;96.90;;;;;;5073121;28;20487;-66
2022/06/06 05:41:09;;;;;;;9.20;6.57;;;17.00;96.50;;;;;;5073475;28;20464;-66
2022/06/06 05:43:43;;;;;;;8.37;5.37;;;17.00;96.90;;;;;;5073665;28;20435;-66
2022/06/06 05:46:33;;;;;;;10.60;6.60;;;17.00;96.90;;;;;;5073367;28;20432;-66
2022/06/06 05:49:13;;;;;;;9.40;6.23;;;17.10;96.30;;;;;;5073308;28;20465;-65
2022/06/06 05:51:51;;;;;;;7.17;5.80;;;17.10;96.20;;;;;;5073361;28;20460;-65
2022/06/06 05:54:39;;;;;;;9.23;5.90;;;17.20;96.20;;;;;;5073363;28;20437;-65
2022/06/06 05:57:25;;;;;;;7.30;5.63;;;17.20;96.30;;;;;;5073046;28;20440;-66
2022/06/06 06:00:09;;;;;;;10.47;5.37;;;17.30;95.80;;;;;;5073263;28;20453;-66
2022/06/06 06:02:58;;;;;;;7.60;5.60;;;17.40;95.30;;;;;;5073161;28;20420;-66
2022/06/06 06:05:37;;;;;;;5.90;5.30;;;17.40;95.30;;;;;;5056428;28;20448;-67
2022/06/06 06:08:16;;;;;;;9.17;5.47;;;17.40;94.90;;;;;;5073027;28;20461;-67
2022/06/06 06:10:53;;;;;;;6.90;5.03;;;17.50;94.70;;;;;;5072958;28;20829;-69
2022/06/06 06:13:48;;;;;;;6.90;5.13;;;17.50;94.50;;;;;;5073131;28;20424;-68
2022/06/06 06:16:17;;;;;;;5.47;4.10;;;17.50;94.40;;;;;;5072820;28;20922;-68
2022/06/06 06:18:49;;;;;;;5.77;4.10;;;17.40;93.70;;;;;;5073106;28;20810;-69
2022/06/06 06:21:19;;;;;;;5.97;4.30;;;17.40;94.00;;;;;;5073111;28;20858;-68
2022/06/06 06:23:52;;;;;;;4.90;4.33;;;17.40;93.10;;;;;;5072882;28;20917;-69
2022/06/06 06:26:20;;;;;;;4.93;3.90;;;17.40;92.90;;;;;;5073065;28;20508;-68
2022/06/06 06:28:49;;;;;;;4.27;3.40;;;17.50;93.30;;;;;;5072939;28;20484;-69
2022/06/06 06:31:31;;;;;;;3.80;3.40;;;17.60;92.90;;;;;;5072942;28;20526;-69
2022/06/06 06:34:14;;;;;;;3.43;3.03;;;17.70;92.20;;;;;;5072952;28;20437;-68
2022/06/06 06:36:46;;;;;;;5.10;3.60;;;17.80;91.70;;;;;;5073093;28;20439;-69
2022/06/06 06:39:33;;;;;;;3.43;3.10;;;17.90;92.20;;;;;;5072999;28;20435;-69
2022/06/06 06:42:15;;;;;;;3.40;3.10;;;18.10;91.60;;;;;;5073818;28;20433;-69
2022/06/06 06:44:48;;;;;;;3.20;2.90;;;18.20;90.30;;;;;;5072968;28;20432;-69
2022/06/06 06:47:20;;;;;;;3.07;2.77;;;18.20;88.20;;;;;;5073137;28;20440;-68
2022/06/06 06:49:53;;;;;;;4.07;3.20;;;18.30;88.80;;;;;;5077333;28;20533;-68
2022/06/06 06:52:31;;;;;;;3.57;2.73;;;18.30;87.60;;;;;;5079084;28;20440;-69
2022/06/06 06:55:08;;;;;;;6.00;2.60;;;18.40;86.90;;;;;;5078421;28;20429;-68
2022/06/06 06:57:53;;;;;;;2.90;2.60;;;18.40;85.80;;;;;;5076393;28;20521;-69
2022/06/06 07:00:22;;;;;;;2.50;2.30;;;18.40;85.60;;;;;;5076575;28;20460;-69
2022/06/06 07:09:00;;;;;;;2.80;2.10;;;18.80;84.10;;;;;;5076194;28;20968;-69
2022/06/06 07:11:47;;;;;;;3.00;2.23;;;18.80;82.00;;;;;;5075791;28;20460;-69
2022/06/06 07:14:26;;;;;;;2.27;2.07;;;18.90;83.40;;;;;;5076053;28;20433;-69
2022/06/06 07:16:58;;;;;;;1.90;1.70;;;19.00;81.90;;;;;;5075707;28;20429;-69
2022/06/06 07:19:32;;;;;;;2.60;2.40;;;19.10;83.00;;;;;;5076210;28;20425;-69
2022/06/06 07:22:03;;;;;;;2.40;1.53;;;19.20;80.40;;;;;;5075891;28;20432;-69
2022/06/06 07:24:31;;;;;;;3.10;2.03;;;19.20;79.00;;;;;;5075869;28;20795;-69
2022/06/06 07:27:01;;;;;;;3.17;1.93;;;19.30;77.20;;;;;;5075404;28;20968;-69
2022/06/06 07:29:27;;;;;;;1.93;1.30;;;19.30;78.70;;;;;;5075736;28;20487;-69
2022/06/06 07:32:20;;;;;;;2.80;1.70;;;19.30;77.80;;;;;;5075874;28;20490;-69
2022/06/06 07:35:00;;;;;;;1.97;1.40;;;19.50;80.50;;;;;;5075669;28;20433;-69
2022/06/06 07:37:48;;;;;;;1.83;1.60;;;19.70;79.50;;;;;;5075676;28;20433;-69
2022/06/06 07:40:28;;;;;;;4.00;1.70;;;19.90;78.50;;;;;;5075512;28;20461;-69
2022/06/06 07:43:17;;;;;;;1.53;1.43;;;20.00;74.80;;;;;;5075510;28;20447;-69
2022/06/06 07:45:48;;;;;;;1.37;1.00;;;20.10;73.20;;;;;;5075605;28;20429;-69
2022/06/06 07:48:36;;;;;;;5.43;1.63;;;20.10;73.30;;;;;;5075533;28;20429;-68
2022/06/06 07:51:12;;;;;;;2.07;1.10;;;20.20;74.20;;;;;;5075258;28;20464;-68
2022/06/06 07:53:51;;;;;;;1.57;1.00;;;20.40;72.00;;;;;;5075428;28;20451;-68
2022/06/06 07:56:28;;;;;;;1.70;1.07;;;20.50;71.00;;;;;;5075341;28;20803;-68
2022/06/06 07:59:03;;;;;;;2.83;1.20;;;20.50;68.00;;;;;;5075368;28;20819;-69
2022/06/06 08:01:40;;;;;;;2.83;1.40;;;20.70;70.30;;;;;;5075222;28;20464;-68
2022/06/06 08:04:20;;;;;;;1.73;1.63;;;20.70;69.30;;;;;;5075032;28;20436;-68
2022/06/06 08:06:59;;;;;;;2.40;0.80;;;20.90;69.00;;;;;;5075252;28;20429;-69
2022/06/06 08:09:45;;;;;;;2.10;1.10;;;21.00;65.00;;;;;;5074749;28;20969;-69
2022/06/06 08:12:31;;;;;;;2.77;1.30;;;21.20;67.20;;;;;;5075093;28;20424;-68
2022/06/06 08:15:08;;;;;;;2.60;1.20;;;21.20;66.50;;;;;;5074584;28;20982;-69
2022/06/06 08:17:50;;;;;;;1.50;1.30;;;21.20;70.50;;;;;;5074841;28;20504;-68
2022/06/06 08:20:22;;;;;;;4.50;1.10;;;21.30;68.00;;;;;;5075001;28;20535;-68
2022/06/06 08:22:51;;;;;;;1.53;1.10;;;21.50;66.30;;;;;;5074802;28;20433;-69
2022/06/06 08:25:20;;;;;;;3.53;1.30;;;21.60;63.30;;;;;;5074556;28;20476;-68
2022/06/06 08:27:50;;;;;;;4.23;1.53;;;21.80;63.50;;;;;;5074549;28;20470;-68
2022/06/06 08:30:19;;;;;;;2.43;1.57;;;21.90;62.90;;;;;;5074097;28;20490;-68
2022/06/06 08:32:46;;;;;;;1.10;0.93;;;22.10;62.80;;;;;;5074544;28;20447;-69
2022/06/06 08:35:13;;;;;;;3.37;1.10;;;22.20;59.80;;;;;;5074350;28;20812;-68
2022/06/06 08:38:07;;;;;;;4.43;0.80;;;22.20;58.40;;;;;;5074367;28;20452;-69
2022/06/06 08:41:04;;;;;;;2.53;0.60;;;22.10;59.20;;;;;;5066414;28;20476;-68
2022/06/06 08:44:01;;;;;;;0.63;0.60;;;21.90;58.20;;;;;;5074297;28;20432;-68
2022/06/06 08:46:42;;;;;;;1.27;0.87;;;21.90;60.20;;;;;;5074303;28;20448;-68
2022/06/06 08:52:12;;;;;;;1.20;0.93;;;22.00;62.30;;;;;;5072830;28;20431;-69
2022/06/06 08:55:08;;;;;;;3.20;0.77;;;22.10;59.40;;;;;;5074207;28;20424;-67
2022/06/06 08:58:01;;;;;;;1.33;1.00;;;22.20;59.60;;;;;;5057189;28;20460;-69
2022/06/06 09:00:44;;;;;;;1.53;0.97;;;22.30;59.10;;;;;;5074470;28;20464;-68
2022/06/06 09:03:57;;;;;;;3.43;1.00;;;22.60;58.50;;;;;;5075226;28;20440;-69
2022/06/06 09:07:06;;;;;;;4.50;1.20;;;22.70;54.50;;;;;;5075303;28;20432;-68
2022/06/06 09:10:20;;;;;;;2.20;1.00;;;22.80;55.40;;;;;;5059126;28;20883;-69
2022/06/06 09:13:15;;;;;;;1.27;0.80;;;22.90;54.10;;;;;;5074396;28;20451;-69
2022/06/06 09:16:16;;;;;;;1.20;0.90;;;22.80;55.00;;;;;;5075131;28;20429;-68
2022/06/06 09:19:15;;;;;;;5.50;1.23;;;22.90;54.80;;;;;;5073497;28;20787;-69
2022/06/06 09:22:07;;;;;;;1.73;1.00;;;22.90;54.40;;;;;;5073361;28;20863;-68
2022/06/06 09:25:09;;;;;;;2.10;0.93;;;22.70;56.30;;;;;;5071226;28;20841;-68
2022/06/06 09:28:22;;;;;;;2.70;1.87;;;22.50;55.00;;;;;;5060878;28;20972;-69
2022/06/06 09:31:27;;;;;;;2.30;1.00;;;22.40;55.70;;;;;;5075720;28;20488;-68
2022/06/06 09:34:24;;;;;;;1.23;1.10;;;22.20;57.00;;;;;;5075973;28;20801;-68
2022/06/06 09:37:04;;;;;;;2.47;1.00;;;22.00;56.20;;;;;;5039905;28;20447;-70
2022/06/06 09:39:45;;;;;;;5.00;1.77;;;22.10;58.40;;;;;;5073611;28;20452;-69
2022/06/06 09:42:26;;;;;;;2.87;0.93;;;22.30;57.60;;;;;;5073444;28;20431;-67
2022/06/06 09:45:20;;;;;;;4.43;1.13;;;22.70;57.10;;;;;;5073557;28;20435;-68
2022/06/06 09:48:23;;;;;;;2.27;0.80;;;23.10;54.30;;;;;;5073531;28;20435;-68
2022/06/06 09:51:45;;;;;;;6.90;0.70;;;23.50;55.50;;;;;;5073420;28;20480;-68
2022/06/06 10:00:58;;;;;;;0.80;0.80;;;24.20;54.10;;;;;;5073400;28;20431;-68
2022/06/06 10:04:04;;;;;;;2.30;1.00;;;24.40;53.10;;;;;;5073292;28;20428;-69
2022/06/06 10:07:04;;;;;;;2.47;0.90;;;24.50;53.90;;;;;;5073287;28;20765;-68
2022/06/06 10:09:52;;;;;;;2.07;0.67;;;24.40;52.80;;;;;;5072978;28;20460;-69
2022/06/06 10:12:54;;;;;;;3.30;1.10;;;24.60;52.60;;;;;;5073687;28;20436;-69
2022/06/06 10:15:37;;;;;;;2.40;0.90;;;24.80;50.90;;;;;;5069856;28;20975;-68
2022/06/06 10:18:33;;;;;;;2.83;0.80;;;25.20;50.40;;;;;;5073310;28;20436;-69
2022/06/06 10:21:26;;;;;;;7.13;1.80;;;25.70;49.50;;;;;;5070236;28;20487;-68
2022/06/06 10:24:10;;;;;;;1.93;0.70;;;25.70;46.60;;;;;;5074032;28;20431;-68
2022/06/06 10:26:50;;;;;;;1.23;0.50;;;25.80;47.50;;;;;;5076621;28;20830;-67
2022/06/06 10:33:11;;;;;;;5.10;0.70;;;26.40;46.40;;;;;;5071683;28;20439;-68
2022/06/06 10:35:53;;;;;;;1.03;0.67;;;26.90;43.50;;;;;;5076747;28;20444;-67
2022/06/06 10:38:36;;;;;;;8.13;1.43;;;27.30;41.70;;;;;;5077054;28;20425;-68
2022/06/06 10:41:15;;;;;;;5.30;0.67;;;27.30;41.10;;;;;;5076834;28;20460;-68
2022/06/06 10:43:58;;;;;;;5.60;0.87;;;27.30;41.70;;;;;;5076767;28;20475;-68
2022/06/06 10:46:26;;;;;;;1.77;0.70;;;27.30;39.60;;;;;;5076586;28;20453;-67
2022/06/06 10:49:11;;;;;;;2.43;0.67;;;27.40;39.40;;;;;;5076229;28;20531;-68
2022/06/06 10:52:22;;;;;;;1.97;0.83;;;27.80;40.00;;;;;;5076360;28;20456;-68
2022/06/06 10:55:23;;;;;;;1.40;0.77;;;28.50;38.40;;;;;;5076689;28;20436;-68
2022/06/06 10:58:11;;;;;;;1.27;0.60;;;28.80;36.80;;;;;;5076520;28;20456;-68
2022/06/06 11:00:55;;;;;;;2.60;1.07;;;29.10;36.50;;;;;;5076186;28;20888;-68
2022/06/06 11:04:03;;;;;;;2.97;0.70;;;29.50;34.80;;;;;;5076208;28;20910;-67
2022/06/06 11:07:18;;;;;;;1.63;1.00;;;29.60;34.80;;;;;;5001950;28;20467;-69
2022/06/06 11:10:11;;;;;;;2.83;1.30;;;30.30;35.20;;;;;;5075979;28;20461;-67
2022/06/06 11:13:05;;;;;;;3.83;1.20;;;30.00;33.80;;;;;;5076081;28;20429;-68
2022/06/06 11:15:37;;;;;;;4.60;1.63;;;28.50;37.00;;;;;;5075968;28;20804;-68
2022/06/06 11:18:42;;;;;;;6.00;1.20;;;26.60;45.40;;;;;;5076048;28;20429;-68
2022/06/06 11:21:41;;;;;;;1.23;0.90;;;25.20;48.80;;;;;;5075903;28;20564;-68
2022/06/06 11:24:19;;;;;;;1.87;0.90;;;24.10;51.40;;;;;;5075919;28;20456;-69
2022/06/06 11:27:21;;;;;;;2.00;0.90;;;23.20;54.50;;;;;;5076053;28;20772;-69
2022/06/06 11:30:20;;;;;;;1.80;0.63;;;23.00;58.30;;;;;;5075702;28;20470;-68
2022/06/06 11:33:21;;;;;;;1.37;0.60;;;23.90;56.30;;;;;;5075720;28;20460;-68
2022/06/06 11:36:09;;;;;;;4.03;1.70;;;25.40;52.90;;;;;;5075167;28;20448;-69
2022/06/06 11:39:03;;;;;;;0.60;0.57;;;26.90;49.50;;;;;;5075700;28;20447;-69
2022/06/06 11:41:42;;;;;;;3.40;0.80;;;28.20;44.20;;;;;;5075828;28;20492;-68
2022/06/06 11:44:25;;;;;;;1.43;0.60;;;28.90;42.00;;;;;;5075827;28;20429;-68
2022/06/06 11:47:25;;;;;;;1.50;0.90;;;29.80;39.60;;;;;;5075109;28;20828;-68
2022/06/06 11:50:37;;;;;;;1.50;0.90;;;30.40;38.50;;;;;;5074984;28;21023;-68
2022/06/06 11:53:29;;;;;;;1.10;1.00;;;31.10;37.30;;;;;;5075378;28;20425;-69
2022/06/06 11:56:05;;;;;;;1.47;0.90;;;31.80;37.20;;;;;;5075220;28;20546;-68
2022/06/06 11:58:59;;;;;;;1.13;0.97;;;32.20;36.40;;;;;;5075015;28;21031;-69
2022/06/06 12:01:50;;;;;;;5.27;1.10;;;32.90;33.60;;;;;;5075208;28;20463;-68
2022/06/06 12:04:55;;;;;;;2.10;0.80;;;33.20;29.80;;;;;;5075218;28;20456;-68
2022/06/06 12:08:04;;;;;;;1.87;1.03;;;33.10;28.60;;;;;;5076052;28;20462;-68
2022/06/06 12:10:35;;;;;;;1.53;0.90;;;32.40;30.30;;;;;;5052788;28;20479;-68
2022/06/06 12:13:44;;;;;;;2.20;0.90;;;31.50;31.20;;;;;;5077985;28;20951;-68
2022/06/06 12:16:28;;;;;;;4.00;1.60;;;30.20;31.70;;;;;;5074881;28;20448;-67
2022/06/06 12:19:19;;;;;;;2.77;0.93;;;29.30;36.20;;;;;;5074904;28;20448;-68
2022/06/06 12:22:13;;;;;;;0.77;0.70;;;29.00;36.10;;;;;;5074849;28;20457;-68
2022/06/06 12:25:16;;;;;;;1.67;0.97;;;29.60;34.10;;;;;;5075065;28;20431;-68
2022/06/06 12:28:02;;;;;;;4.83;1.20;;;30.30;31.80;;;;;;5074976;28;20421;-68
2022/06/06 12:30:49;;;;;;;6.30;1.13;;;30.90;29.70;;;;;;5074880;28;20492;-68
2022/06/06 12:33:19;;;;;;;2.30;1.00;;;31.20;29.40;;;;;;5074262;28;20929;-68
2022/06/06 12:35:56;;;;;;;3.47;1.30;;;31.40;31.10;;;;;;5074839;28;20452;-68
2022/06/06 12:38:38;;;;;;;4.50;1.40;;;31.70;28.50;;;;;;5075002;28;20432;-69
2022/06/06 12:41:17;;;;;;;3.63;1.20;;;31.90;30.90;;;;;;5074736;28;20483;-68
2022/06/06 12:43:58;;;;;;;5.20;1.27;;;32.40;28.10;;;;;;5075680;28;20452;-69
2022/06/06 12:47:07;;;;;;;4.20;1.00;;;32.80;26.90;;;;;;5074572;28;20493;-68
2022/06/06 12:49:53;;;;;;;2.10;1.23;;;32.50;28.10;;;;;;5028888;28;20805;-67
2022/06/06 12:52:54;;;;;;;5.63;1.10;;;32.40;28.60;;;;;;5075313;28;20831;-69
2022/06/06 12:55:33;;;;;;;2.70;1.00;;;32.40;27.30;;;;;;5075036;28;20424;-68
2022/06/06 12:58:11;;;;;;;1.13;0.80;;;32.80;28.30;;;;;;5073896;28;20464;-69
2022/06/06 13:03:38;;;;;;;2.67;0.87;;;32.70;27.00;;;;;;5074156;28;20404;-69
2022/06/06 13:06:12;;;;;;;3.90;1.17;;;32.80;28.60;;;;;;5073647;28;20442;-69
2022/06/06 13:08:59;;;;;;;7.33;1.50;;;33.30;26.70;;;;;;5073657;28;20436;-69
2022/06/06 13:11:48;;;;;;;8.13;1.53;;;34.10;25.00;;;;;;5073900;28;20515;-68
2022/06/06 13:14:35;;;;;;;2.33;1.10;;;34.90;24.20;;;;;;5073893;28;20444;-70
2022/06/06 13:17:12;;;;;;;5.30;1.20;;;34.80;22.80;;;;;;5073762;28;20432;-68
2022/06/06 13:19:56;;;;;;;1.63;0.80;;;34.80;24.50;;;;;;5074077;28;20428;-68
2022/06/06 13:22:40;;;;;;;1.93;1.00;;;34.80;23.70;;;;;;5073549;28;20999;-69
2022/06/06 13:25:17;;;;;;;3.53;1.20;;;34.80;24.10;;;;;;5073699;28;20424;-68
2022/06/06 13:27:59;;;;;;;2.80;0.80;;;34.40;24.10;;;;;;5073406;28;20439;-69
2022/06/06 13:30:29;;;;;;;2.60;0.70;;;34.20;24.70;;;;;;5073674;28;20517;-68
2022/06/06 13:33:10;;;;;;;2.20;0.73;;;34.20;24.00;;;;;;5073710;28;20519;-69
2022/06/06 13:35:46;;;;;;;1.53;1.00;;;34.10;24.80;;;;;;5073612;28;20473;-69
2022/06/06 13:38:32;;;;;;;3.27;1.00;;;34.40;24.40;;;;;;5073345;28;20866;-69
2022/06/06 13:41:14;;;;;;;1.63;0.80;;;34.70;24.50;;;;;;5074333;28;20463;-69
2022/06/06 13:43:56;;;;;;;0.90;0.80;;;34.90;23.70;;;;;;5073521;28;20442;-68
2022/06/06 13:46:46;;;;;;;5.60;0.93;;;34.80;23.80;;;;;;5073461;28;20450;-68
2022/06/06 13:49:31;;;;;;;2.07;1.10;;;34.60;24.20;;;;;;5073164;28;20433;-69
2022/06/06 13:52:12;;;;;;;3.03;1.60;;;34.70;24.00;;;;;;5073014;28;20849;-68
2022/06/06 13:54:40;;;;;;;1.93;0.70;;;34.90;25.00;;;;;;5073204;28;20893;-69
2022/06/06 13:57:32;;;;;;;1.00;0.80;;;35.00;23.70;;;;;;5074115;28;20451;-69
2022/06/06 14:00:25;;;;;;;3.87;1.13;;;35.70;24.20;;;;;;5077124;28;21074;-68
2022/06/06 14:03:09;;;;;;;2.77;1.07;;;36.40;23.80;;;;;;5074767;28;20545;-69
2022/06/06 14:06:03;;;;;;;2.33;0.90;;;35.80;23.30;;;;;;5077105;28;20438;-68
2022/06/06 14:08:50;;;;;;;2.97;1.37;;;35.50;24.10;;;;;;5077684;28;20424;-69
2022/06/06 14:11:39;;;;;;;2.40;0.80;;;35.70;24.20;;;;;;5077269;28;20533;-68
2022/06/06 14:14:08;;;;;;;6.10;1.50;;;35.90;22.80;;;;;;5077325;28;20452;-69
2022/06/06 14:16:43;;;;;;;3.33;1.17;;;35.80;22.20;;;;;;5077252;28;20455;-68
2022/06/06 14:19:15;;;;;;;2.40;1.40;;;34.70;22.90;;;;;;5076854;28;20432;-69
2022/06/06 14:21:49;;;;;;;4.90;1.33;;;33.20;24.90;;;;;;5076990;28;20877;-69